ENHV/HVG METAR and TAF weather

Enter ICAO airport designator
Station Type Date Time Source
ENHV METAR 2022/06/26 07:20 UTC NOAA

ENHV 260720Z 02012KT CAVOK 09/06 Q1023


Station Type Date Time Source
ENHV Decoded METAR 2022/06/26 07:20 UTC NOAA

Honningsvag / Valan, Norway (ENHV) 71-01N 025-59E 14M
Jun 26, 2022 - 03:20 AM EDT / 2022.06.26 0720 UTC
Wind: from the NNE (020 degrees) at 14 MPH (12 KT):0
Visibility: greater than 7 mile(s):0
Temperature: 48 F (9 C)
Dew Point: 42 F (6 C)
Relative Humidity: 81%
Pressure (altimeter): 30.21 in. Hg (1023 hPa)
ob: ENHV 260720Z 02012KT CAVOK 09/06 Q1023
cycle: 7

Station Type Date Time Source
ENHV TAF UTC NOAA

Error!

Example: see airport list